Steinkjer, Norge

12:49:CET den 31. Oktober 2014 (GMT +0100)
Helgesmark/Byafossen | Change Station
CLOSE
Current Station
Personlig værstasjon
Location: Steinkjer, NORD-TRNDELAG
Høyde over havet: 328 ft
Nearby Weather Stations

H.o.h 328 ft 64.03 °N, 11.55 °E | Updated 10 seconds ago

Partly Cloudy
Delvis skyet
41.0 °F
Feels Like 41 °F
N
0.0
Vind Variabel Vind from SV
Gusts 0.0 mph

I dag
High -- | Low -- °F
--% Chance of Precip.
I går
High -- | Low -- °F
Precip. -- tommer
7:52 AM 4:01 PM
Første kvarter, 54% visible
Lufttrykk 30.24 tommer
Sikt 6.2 eng. mil
Skyet Few 900 ft
Nedkjølingseffekt 41 °F
Duggpunkt 36 °F
Fuktighet 82%
Regn 0.25 tommer
Snødybde Not available.
UV 0.0 av 12
Pollen Not available.
Luftkvalitet Not available.
Flu Activity Not available.
METAR ENNM 311120Z 07006KT 9999 FEW009 BKNT015 04/03 Q1024

More Conditions Fewer Conditions

Lufttrykk 30.24 tommer
Sikt 6.2 eng. mil
Skyet Few 900 ft
Nedkjølingseffekt 41 °F
Duggpunkt 36 °F
Fuktighet 82%
Regn 0.25 tommer
Snødybde Not available.
UV 0.0 av 12
Pollen Not available.
Luftkvalitet Not available.
Flu Activity Not available.
METAR ENNM 311120Z 07006KT 9999 FEW009 BKNT015 04/03 Q1024

More Conditions Fewer Conditions

10-Day Weather Forecast

Almanac

Astronomi

Oct. 31, 2014 Oppgang Nedgang
Virkelig tid
Tussmørke
Nautisk skumring
Astronomisk skumring
Månen
Lengde av synlig lys
Dagens lengde
Tomorrow will be .
, % of the Moon is Illuminated

Dagens maks og min

Country Highs Country Lows

Community

WunderPhotos

Upload Photos

1,766,581 photos uploaded!

WunderBlogs® & News

Nearby

Luftkvalitet

  Luftkvalitet AQ Indeks Forurensing
Not available.

Snødybde

Stasjon Depth Høyde over havet

Earthquake Activity

By Distance Mag. Time & Date
Minimum magnitude displayed is 2.5.

Coastal Water Temperatures

Sted Temperatur

Nearby Weather Stations